Time;durP1;ratioP1;P1;durP2;ratioP2;P2;SDS_P1;SDS_P2;PMS_P1;PMS_P2;Temp;Humidity;BMP_temperature;BMP_pressure;BME280_temperature;BME280_humidity;BME280_pressure;Samples;Min_cycle;Max_cycle;Signal;HPM_P1;HPM_P2
2021/07/05 00:00:32;;;;;;;10.95;8.60;;;;;;;19.82;85.98;98736.68;1805383;79;21007;-65
2021/07/05 00:02:58;;;;;;;12.10;8.83;;;;;;;19.81;86.04;98741.16;1781447;79;21065;-65
2021/07/05 00:05:25;;;;;;;11.60;8.25;;;;;;;19.78;86.11;98741.88;1805872;79;20984;-66
2021/07/05 00:07:51;;;;;;;11.55;8.43;;;;;;;19.81;86.19;98739.78;1806610;79;21005;-65
2021/07/05 00:10:23;;;;;;;16.15;8.20;;;;;;;19.82;86.12;98738.06;1810803;79;21047;-65
2021/07/05 00:12:52;;;;;;;10.25;8.55;;;;;;;19.82;86.07;98740.82;1779923;79;21037;-65
2021/07/05 00:15:22;;;;;;;11.25;8.18;;;;;;;19.80;86.11;98744.50;1783950;79;20989;-65
2021/07/05 00:17:52;;;;;;;9.73;7.75;;;;;;;19.79;86.25;98747.06;1782397;79;21056;-65
2021/07/05 00:20:21;;;;;;;14.07;8.08;;;;;;;19.81;86.41;98754.97;1799172;79;20995;-65
2021/07/05 00:22:49;;;;;;;12.80;7.65;;;;;;;19.85;86.66;98747.01;1792684;79;21108;-66
2021/07/05 00:25:15;;;;;;;8.88;7.47;;;;;;;19.88;86.71;98751.01;1800590;79;21638;-65
2021/07/05 00:27:42;;;;;;;12.78;7.47;;;;;;;19.90;86.77;98748.70;1805702;79;21076;-65
2021/07/05 00:30:09;;;;;;;12.45;7.95;;;;;;;19.90;86.72;98763.90;1794106;79;21530;-65
2021/07/05 00:32:37;;;;;;;11.08;7.00;;;;;;;19.87;86.72;98755.73;1804829;77;21019;-66
2021/07/05 00:35:06;;;;;;;11.15;7.65;;;;;;;19.88;86.76;98753.77;1708662;82;21061;-66
2021/07/05 00:37:32;;;;;;;11.00;7.67;;;;;;;19.89;86.77;98751.23;1695094;79;21042;-67
2021/07/05 00:39:58;;;;;;;9.63;6.97;;;;;;;19.89;86.73;98752.63;1784013;80;21010;-67
2021/07/05 00:42:25;;;;;;;11.22;7.10;;;;;;;19.87;86.86;98743.91;1792867;79;21072;-66
2021/07/05 00:44:52;;;;;;;10.40;6.90;;;;;;;19.90;86.83;98739.62;1764639;79;21063;-66
2021/07/05 00:47:18;;;;;;;11.05;7.47;;;;;;;19.90;86.78;98745.14;1779938;79;20984;-67
2021/07/05 00:49:45;;;;;;;8.40;6.85;;;;;;;19.88;86.76;98737.20;1790185;80;21083;-66
2021/07/05 00:52:12;;;;;;;9.50;6.80;;;;;;;19.88;86.81;98738.58;1791138;80;21056;-67
2021/07/05 00:54:38;;;;;;;9.53;6.67;;;;;;;19.90;86.92;98735.48;1804904;79;21045;-67
2021/07/05 00:57:05;;;;;;;8.78;6.75;;;;;;;19.92;87.03;98738.09;1815013;79;21584;-66
2021/07/05 00:59:31;;;;;;;10.08;6.00;;;;;;;19.94;86.98;98733.03;1791562;79;21024;-67
2021/07/05 01:01:57;;;;;;;10.13;6.70;;;;;;;19.97;86.90;98731.50;1794326;79;21077;-66
2021/07/05 01:04:24;;;;;;;8.73;6.80;;;;;;;20.00;86.79;98733.55;1789954;80;21042;-67
2021/07/05 01:06:50;;;;;;;8.28;6.30;;;;;;;19.99;86.67;98729.17;1797374;79;21036;-67
2021/07/05 01:09:17;;;;;;;8.88;6.80;;;;;;;19.99;86.63;98726.41;1767494;80;21038;-67
2021/07/05 01:11:44;;;;;;;8.78;6.17;;;;;;;19.95;86.61;98719.42;1793104;79;21086;-67
2021/07/05 01:14:10;;;;;;;9.30;6.97;;;;;;;19.95;86.64;98726.91;1760552;80;21443;-66
2021/07/05 01:16:40;;;;;;;9.15;6.25;;;;;;;19.96;86.56;98736.80;1791585;80;20988;-66
2021/07/05 01:19:07;;;;;;;9.95;6.87;;;;;;;19.97;86.52;98724.59;1780540;80;21081;-66
2021/07/05 01:21:35;;;;;;;9.78;6.47;;;;;;;19.95;86.44;98729.66;1788485;80;21006;-66
2021/07/05 01:24:01;;;;;;;10.85;6.72;;;;;;;19.91;86.37;98727.42;1755099;80;21549;-66
2021/07/05 01:26:28;;;;;;;8.80;6.42;;;;;;;19.90;86.35;98726.61;1785010;80;20963;-67
2021/07/05 01:28:54;;;;;;;9.08;6.40;;;;;;;19.90;86.31;98730.75;1774079;79;21504;-68
2021/07/05 01:31:21;;;;;;;11.60;6.30;;;;;;;19.90;86.21;98737.66;1811129;79;21004;-67
2021/07/05 01:33:47;;;;;;;8.90;6.17;;;;;;;19.91;86.14;98730.19;1777893;78;21566;-66
2021/07/05 01:36:13;;;;;;;10.25;5.97;;;;;;;19.92;86.09;98731.19;1770506;81;20953;-66
2021/07/05 01:38:42;;;;;;;8.35;6.15;;;;;;;19.91;86.05;98723.28;1786583;80;21130;-67
2021/07/05 01:41:09;;;;;;;7.15;6.45;;;;;;;19.93;86.00;98730.04;1801111;79;20986;-67
2021/07/05 01:43:37;;;;;;;9.20;6.08;;;;;;;19.92;85.89;98733.95;1780777;78;21543;-66
2021/07/05 01:46:03;;;;;;;11.78;6.28;;;;;;;19.90;85.84;98736.28;1756574;80;21567;-67
2021/07/05 01:48:30;;;;;;;9.85;6.67;;;;;;;19.86;85.78;98738.15;1744807;81;21096;-66
2021/07/05 01:50:56;;;;;;;8.23;6.62;;;;;;;19.80;85.75;98732.68;1758954;81;20987;-66
2021/07/05 01:53:22;;;;;;;7.85;6.60;;;;;;;19.79;85.77;98749.83;1760623;80;21109;-66
2021/07/05 01:55:52;;;;;;;10.85;6.80;;;;;;;19.76;85.76;98749.73;1773725;79;21598;-67
2021/07/05 01:58:18;;;;;;;11.65;7.15;;;;;;;19.73;85.79;98755.37;1772834;80;21091;-67
2021/07/05 02:00:46;;;;;;;7.20;6.10;;;;;;;19.70;85.78;98750.56;1776089;80;20994;-66
2021/07/05 02:03:14;;;;;;;9.10;6.78;;;;;;;19.66;85.79;98755.19;1805756;79;21056;-66
2021/07/05 02:05:41;;;;;;;10.93;7.15;;;;;;;19.61;85.83;98756.84;1819726;79;20977;-66
2021/07/05 02:08:07;;;;;;;9.93;7.12;;;;;;;19.60;85.97;98761.33;1786865;79;20983;-66
2021/07/05 02:10:36;;;;;;;10.53;6.45;;;;;;;19.57;86.02;98761.47;1775968;79;21014;-66
2021/07/05 02:13:13;;;;;;;9.58;7.53;;;;;;;19.56;86.10;98761.80;1805263;79;21003;-66
2021/07/05 02:15:40;;;;;;;13.58;7.80;;;;;;;19.52;86.17;98762.31;1814702;79;21032;-66
2021/07/05 02:18:06;;;;;;;8.28;7.30;;;;;;;19.48;86.28;98768.31;1765564;79;21046;-67
2021/07/05 02:20:34;;;;;;;10.55;6.87;;;;;;;19.45;86.43;98775.92;1781878;79;21025;-66
2021/07/05 02:23:01;;;;;;;10.08;7.65;;;;;;;19.43;86.51;98773.51;1805020;77;21017;-66
2021/07/05 02:25:29;;;;;;;10.35;8.08;;;;;;;19.40;86.59;98772.80;1808818;79;20997;-66
2021/07/05 02:27:59;;;;;;;10.00;7.35;;;;;;;19.37;86.67;98777.08;1785414;79;21075;-66
2021/07/05 02:30:27;;;;;;;10.80;7.90;;;;;;;19.38;86.75;98779.23;1781991;79;21036;-67
2021/07/05 02:32:55;;;;;;;8.50;7.42;;;;;;;19.38;86.80;98779.23;1820551;77;21052;-66
2021/07/05 02:35:22;;;;;;;15.05;8.03;;;;;;;19.37;86.82;98770.19;1822651;79;20985;-66
2021/07/05 02:37:48;;;;;;;10.90;7.40;;;;;;;19.38;86.86;98774.53;1819898;77;21037;-66
2021/07/05 02:40:20;;;;;;;9.40;7.45;;;;;;;19.39;86.90;98773.38;1792272;79;21041;-67
2021/07/05 02:42:46;;;;;;;12.43;7.95;;;;;;;19.40;86.90;98778.33;1793192;77;21026;-66
2021/07/05 02:45:23;;;;;;;10.20;7.83;;;;;;;19.37;87.02;98772.94;1757334;81;21571;-66
2021/07/05 02:48:07;;;;;;;;;;;;;;;19.40;87.09;98779.70;1761964;79;21626;-67
2021/07/05 02:50:33;;;;;;;10.15;7.97;;;;;;;19.42;87.14;98771.09;1782972;79;20110;-67
2021/07/05 02:53:01;;;;;;;10.28;7.78;;;;;;;19.38;87.39;98773.72;1816121;77;21089;-66
2021/07/05 02:55:27;;;;;;;8.88;7.40;;;;;;;19.43;87.41;98775.46;1802063;79;21037;-66
2021/07/05 02:57:54;;;;;;;9.38;7.17;;;;;;;19.49;87.34;98780.94;1755391;81;21054;-66
2021/07/05 03:00:25;;;;;;;9.40;6.80;;;;;;;19.51;87.33;98772.55;1727372;81;21076;-67
2021/07/05 03:02:52;;;;;;;11.25;7.35;;;;;;;19.55;87.37;98772.65;1711603;82;21057;-66
2021/07/05 03:05:20;;;;;;;9.45;7.47;;;;;;;19.60;87.42;98773.75;1733131;82;21071;-66
2021/07/05 03:07:47;;;;;;;8.90;7.20;;;;;;;19.68;87.37;98772.79;1818102;77;21554;-66
2021/07/05 03:10:16;;;;;;;9.55;7.17;;;;;;;19.74;87.35;98777.69;1804503;79;20994;-67
2021/07/05 03:12:43;;;;;;;9.90;7.28;;;;;;;19.82;87.48;98771.20;1780936;79;21416;-66
2021/07/05 03:15:11;;;;;;;10.93;7.25;;;;;;;19.91;87.46;98771.00;1791308;79;21614;-66
2021/07/05 03:17:38;;;;;;;12.93;7.35;;;;;;;20.00;87.35;98771.64;1792857;80;21061;-68
2021/07/05 03:20:11;;;;;;;10.23;6.22;;;;;;;20.04;87.07;98767.59;1770244;79;21473;-67
2021/07/05 03:22:38;;;;;;;8.98;7.15;;;;;;;20.07;86.96;98770.44;1738020;82;21523;-67
2021/07/05 03:25:09;;;;;;;9.45;6.90;;;;;;;20.12;86.90;98777.06;1739657;81;21026;-67
2021/07/05 03:27:35;;;;;;;8.00;6.60;;;;;;;20.22;86.92;98779.88;1751566;82;21510;-67
2021/07/05 03:30:05;;;;;;;10.45;7.10;;;;;;;20.32;86.84;98785.69;1768885;81;20986;-66
2021/07/05 03:32:31;;;;;;;12.95;6.78;;;;;;;20.44;86.69;98786.75;1762992;79;21009;-66
2021/07/05 03:34:58;;;;;;;9.63;6.80;;;;;;;20.56;86.60;98787.42;1743103;82;21609;-66
2021/07/05 03:37:24;;;;;;;9.15;6.90;;;;;;;20.71;86.37;98787.16;1754946;81;21039;-66
2021/07/05 03:39:51;;;;;;;14.23;7.20;;;;;;;20.79;86.02;98794.46;1766005;81;21026;-66
2021/07/05 03:42:17;;;;;;;10.30;7.12;;;;;;;20.93;85.80;98793.39;1774558;79;21026;-66
2021/07/05 03:44:43;;;;;;;12.07;7.10;;;;;;;21.07;85.49;98790.92;1752861;81;20986;-67
2021/07/05 03:47:10;;;;;;;8.03;6.62;;;;;;;21.16;85.00;98785.18;1738950;81;21105;-67
2021/07/05 03:49:37;;;;;;;7.83;6.67;;;;;;;21.27;84.69;98782.05;1744310;81;21513;-67
2021/07/05 03:52:04;;;;;;;8.75;6.30;;;;;;;21.43;84.28;98779.20;1755700;82;21069;-67
2021/07/05 03:54:30;;;;;;;8.48;6.78;;;;;;;21.52;83.83;98776.99;1770461;80;21075;-67
2021/07/05 03:56:58;;;;;;;10.93;7.00;;;;;;;21.59;83.42;98782.66;1786553;78;21034;-67
2021/07/05 03:59:25;;;;;;;10.23;7.03;;;;;;;21.75;83.15;98777.84;1786547;80;20993;-67
2021/07/05 04:01:52;;;;;;;9.03;6.35;;;;;;;21.89;82.63;98780.86;1772279;79;21064;-66
2021/07/05 04:04:19;;;;;;;10.03;7.42;;;;;;;21.94;81.82;98775.02;1779977;80;20989;-67
2021/07/05 04:06:45;;;;;;;7.08;6.37;;;;;;;21.98;81.41;98768.95;1719491;80;21064;-67
2021/07/05 04:09:12;;;;;;;9.90;6.95;;;;;;;22.05;80.82;98766.89;1771150;80;21792;-67
2021/07/05 04:11:38;;;;;;;10.28;7.47;;;;;;;22.07;80.47;98767.33;1779021;78;21006;-67
2021/07/05 04:14:05;;;;;;;10.88;7.47;;;;;;;22.08;80.31;98770.30;1778897;80;21004;-67
2021/07/05 04:16:31;;;;;;;9.45;7.42;;;;;;;22.12;79.93;98765.62;1783003;78;20982;-67
2021/07/05 04:18:58;;;;;;;9.18;6.97;;;;;;;22.17;79.78;98768.89;1766119;81;20980;-67
2021/07/05 04:21:26;;;;;;;9.30;7.75;;;;;;;22.16;79.30;98765.89;1767856;80;21075;-67
2021/07/05 04:23:54;;;;;;;10.08;7.05;;;;;;;22.16;79.61;98758.97;1768069;81;21010;-67
2021/07/05 04:26:20;;;;;;;10.05;7.45;;;;;;;22.31;79.66;98760.80;1771899;80;21061;-67
2021/07/05 04:28:47;;;;;;;9.38;7.37;;;;;;;22.48;79.57;98760.84;1770743;80;21068;-68
2021/07/05 04:31:14;;;;;;;10.30;6.40;;;;;;;22.66;79.00;98763.28;1773590;80;20974;-65
2021/07/05 04:33:40;;;;;;;11.28;7.40;;;;;;;22.75;78.44;98764.41;1769574;80;21047;-65
2021/07/05 04:36:07;;;;;;;11.03;7.72;;;;;;;22.77;78.01;98761.50;1771393;80;21036;-66
2021/07/05 04:38:34;;;;;;;9.23;7.25;;;;;;;22.84;77.29;98770.50;1794807;78;21018;-70
2021/07/05 04:41:05;;;;;;;12.63;7.80;;;;;;;22.75;76.75;98772.16;1780628;80;21107;-66
2021/07/05 04:43:30;;;;;;;10.80;8.18;;;;;;;22.74;76.60;98767.77;1759637;81;21081;-68
2021/07/05 04:46:02;;;;;;;11.93;7.72;;;;;;;22.82;76.70;98774.22;1776905;80;21001;-67
2021/07/05 04:48:25;;;;;;;10.88;7.47;;;;;;;22.91;76.65;98771.17;1771165;80;21100;-67
2021/07/05 04:50:51;;;;;;;9.75;8.13;;;;;;;23.07;76.47;98766.22;1791683;80;21527;-67
2021/07/05 04:53:18;;;;;;;11.12;8.03;;;;;;;23.19;75.62;98772.34;1784660;77;21057;-67
2021/07/05 04:55:44;;;;;;;12.93;7.85;;;;;;;23.25;75.16;98771.40;1783892;79;20997;-66
2021/07/05 04:58:11;;;;;;;6.75;6.15;;;;;;;23.26;75.14;98778.56;1781269;79;21038;-67
2021/07/05 05:00:37;;;;;;;8.30;7.15;;;;;;;23.29;75.14;98777.80;1818225;79;21041;-67
2021/07/05 05:04:59;;;;;;;10.03;8.35;;;;;;;23.40;75.29;98776.53;1808320;79;22743;-67
2021/07/05 05:07:26;;;;;;;9.80;8.60;;;;;;;23.43;74.87;98781.35;1770671;80;21544;-68
2021/07/05 05:10:00;;;;;;;7.25;6.20;;;;;;;23.50;74.51;98773.09;1760158;81;21038;-65
2021/07/05 05:12:22;;;;;;;9.68;7.70;;;;;;;23.57;74.37;98771.78;1766974;81;21051;-67
2021/07/05 05:14:48;;;;;;;11.80;8.53;;;;;;;23.44;74.05;98774.63;1745869;81;21556;-67
2021/07/05 05:17:15;;;;;;;10.55;7.62;;;;;;;23.30;74.44;98778.81;1769134;81;21074;-66
2021/07/05 05:19:43;;;;;;;13.65;8.63;;;;;;;23.33;74.91;98775.86;1756399;81;20962;-66
2021/07/05 05:22:09;;;;;;;11.00;8.68;;;;;;;23.51;74.90;98777.48;1712029;82;21042;-67
2021/07/05 05:24:36;;;;;;;11.55;8.80;;;;;;;23.66;73.65;98780.63;1753157;81;21419;-67
2021/07/05 05:27:03;;;;;;;8.23;7.42;;;;;;;23.58;73.58;98778.36;1769143;81;21061;-68
2021/07/05 05:29:29;;;;;;;12.73;8.50;;;;;;;23.54;74.07;98779.49;1766693;81;21015;-67
2021/07/05 05:31:57;;;;;;;11.83;9.03;;;;;;;23.57;74.29;98782.89;1767150;81;21019;-67
2021/07/05 05:34:23;;;;;;;11.15;8.75;;;;;;;23.76;73.83;98782.13;1762619;81;21037;-67
2021/07/05 05:36:49;;;;;;;11.35;8.28;;;;;;;23.89;73.48;98778.45;1739730;81;21533;-68
2021/07/05 05:39:16;;;;;;;9.58;8.55;;;;;;;24.06;73.51;98781.98;1753829;81;21017;-68
2021/07/05 05:41:42;;;;;;;9.35;7.97;;;;;;;24.54;71.88;98777.23;1757893;81;20986;-68
2021/07/05 05:44:08;;;;;;;10.25;8.15;;;;;;;24.54;71.88;98777.23;1767228;81;20995;-68
2021/07/05 05:46:35;;;;;;;11.08;8.75;;;;;;;24.67;71.03;98784.66;1738937;81;21006;-69
2021/07/05 05:49:02;;;;;;;9.75;8.73;;;;;;;24.61;71.16;98777.28;1748507;81;21615;-69
2021/07/05 05:51:33;;;;;;;10.72;8.15;;;;;;;24.36;71.04;98774.11;1769460;81;21085;-68
2021/07/05 05:53:59;;;;;;;9.38;8.38;;;;;;;24.37;71.24;98778.50;1762433;81;21026;-67
2021/07/05 05:56:28;;;;;;;8.80;7.70;;;;;;;24.37;71.24;98778.50;1769177;81;21013;-67
2021/07/05 05:58:59;;;;;;;8.30;6.95;;;;;;;24.43;71.67;98784.70;1768576;81;21022;-67
2021/07/05 06:01:23;;;;;;;8.28;7.47;;;;;;;24.66;71.93;98781.66;1764557;81;20974;-66
2021/07/05 06:03:49;;;;;;;8.78;7.90;;;;;;;24.82;70.50;98774.41;1737097;81;21518;-66
2021/07/05 06:06:16;;;;;;;10.38;7.95;;;;;;;24.78;70.31;98775.78;1726435;83;21026;-66
2021/07/05 06:08:43;;;;;;;8.33;7.00;;;;;;;24.92;70.76;98777.28;1727332;82;21030;-68
2021/07/05 06:11:09;;;;;;;8.53;7.65;;;;;;;25.17;70.51;98787.14;1728674;82;21481;-68
2021/07/05 06:13:37;;;;;;;14.03;8.98;;;;;;;25.17;68.91;98780.19;1739319;82;21109;-69
2021/07/05 06:16:04;;;;;;;8.88;7.95;;;;;;;25.08;68.71;98772.80;1732763;82;21390;-68
2021/07/05 06:18:31;;;;;;;8.03;7.22;;;;;;;25.08;68.71;98772.80;1725343;83;21120;-67
2021/07/05 06:20:58;;;;;;;8.08;7.28;;;;;;;25.01;69.38;98771.38;1727431;82;21082;-67
2021/07/05 06:23:26;;;;;;;10.53;7.50;;;;;;;25.09;69.51;98766.02;1753300;82;21607;-67
2021/07/05 06:25:55;;;;;;;11.10;8.13;;;;;;;25.13;69.03;98764.85;1745787;81;21493;-67
2021/07/05 06:28:23;;;;;;;8.73;7.58;;;;;;;24.99;69.02;98759.81;1735370;82;21058;-67
2021/07/05 06:30:51;;;;;;;10.05;7.42;;;;;;;24.85;69.56;98762.52;1738192;82;21462;-67
2021/07/05 06:33:18;;;;;;;9.95;6.47;;;;;;;24.94;70.26;98763.76;1749639;82;21031;-67
2021/07/05 06:35:46;;;;;;;8.98;6.95;;;;;;;25.28;70.96;98764.91;1749123;82;20975;-68
2021/07/05 06:38:13;;;;;;;7.37;6.40;;;;;;;25.61;69.20;98775.17;1753533;82;21580;-68
2021/07/05 06:40:41;;;;;;;8.28;7.40;;;;;;;25.87;68.65;98774.62;1753710;81;21003;-68
2021/07/05 06:43:07;;;;;;;8.45;7.12;;;;;;;25.96;67.42;98772.26;1748704;82;21589;-69
2021/07/05 06:45:36;;;;;;;7.62;6.30;;;;;;;26.03;66.77;98768.88;1751709;82;21457;-68
2021/07/05 06:48:03;;;;;;;10.13;6.35;;;;;;;26.13;66.16;98772.86;1748439;82;21074;-68
2021/07/05 06:50:30;;;;;;;8.93;6.45;;;;;;;26.11;66.53;98771.84;1716974;83;20987;-68
2021/07/05 07:14:31;;;;;;;9.00;6.20;;;;;;;26.94;65.16;98739.28;1717606;81;21102;-68
2021/07/05 07:17:09;;;;;;;11.12;6.95;;;;;;;27.11;64.17;98744.00;1737105;82;21020;-67
2021/07/05 07:19:34;;;;;;;9.23;6.97;;;;;;;27.34;63.44;98751.08;1721699;81;21080;-67
2021/07/05 07:22:04;;;;;;;8.58;6.50;;;;;;;27.38;63.01;98744.28;1711950;82;21031;-67
2021/07/05 07:24:31;;;;;;;8.25;6.37;;;;;;;27.41;62.88;98745.45;1715757;82;21059;-67
2021/07/05 07:27:00;;;;;;;11.80;6.67;;;;;;;27.44;62.87;98748.83;1720699;82;21062;-67
2021/07/05 07:29:27;;;;;;;9.38;6.53;;;;;;;27.32;62.76;98757.06;1718511;81;21569;-67
2021/07/05 07:31:54;;;;;;;8.88;6.35;;;;;;;27.27;62.31;98751.92;1721016;81;21561;-67
2021/07/05 07:34:21;;;;;;;7.62;5.80;;;;;;;27.36;61.77;98752.86;1715756;81;21011;-67
2021/07/05 07:36:49;;;;;;;6.00;5.22;;;;;;;27.36;61.71;98757.05;1699656;82;21609;-67
2021/07/05 07:39:19;;;;;;;7.67;5.72;;;;;;;27.24;61.34;98764.51;1711583;82;21055;-67
2021/07/05 07:41:44;;;;;;;7.83;5.47;;;;;;;27.06;61.20;98761.79;1707408;82;21617;-67
2021/07/05 07:44:11;;;;;;;8.03;6.40;;;;;;;26.93;61.42;98764.80;1731995;82;21047;-68
2021/07/05 07:46:37;;;;;;;6.90;5.58;;;;;;;26.84;61.63;98766.64;1730004;82;21342;-68
2021/07/05 07:49:04;;;;;;;8.03;5.17;;;;;;;26.90;62.03;98768.41;1713248;82;21031;-67
2021/07/05 07:51:30;;;;;;;7.92;5.28;;;;;;;27.02;61.59;98771.58;1734755;81;20999;-67
2021/07/05 07:53:58;;;;;;;8.15;5.17;;;;;;;26.99;61.82;98774.38;1727169;82;21051;-68
2021/07/05 07:56:25;;;;;;;7.25;5.37;;;;;;;26.93;61.46;98774.58;1728333;82;21506;-68
2021/07/05 07:58:51;;;;;;;8.45;5.65;;;;;;;27.00;61.32;98775.95;1741150;82;21051;-68
2021/07/05 08:01:18;;;;;;;6.62;5.50;;;;;;;27.05;61.86;98777.75;1738835;82;21007;-67
2021/07/05 08:03:45;;;;;;;7.00;4.90;;;;;;;27.19;61.27;98763.73;1729674;82;21572;-67
2021/07/05 08:06:11;;;;;;;7.95;5.30;;;;;;;27.36;61.50;98769.03;1714012;82;20999;-67
2021/07/05 08:08:38;;;;;;;7.83;4.97;;;;;;;27.51;60.05;98776.17;1711939;84;21512;-68
2021/07/05 08:11:06;;;;;;;5.67;4.58;;;;;;;27.68;59.87;98783.66;1714028;82;21505;-67
2021/07/05 08:13:32;;;;;;;6.20;4.85;;;;;;;27.70;58.58;98781.23;1711890;82;21620;-68
2021/07/05 08:15:58;;;;;;;6.70;4.50;;;;;;;27.54;58.95;98775.95;1711965;84;21027;-68
2021/07/05 08:18:25;;;;;;;7.08;4.80;;;;;;;27.48;60.00;98773.40;1685910;83;21134;-68
2021/07/05 08:20:51;;;;;;;5.90;4.35;;;;;;;27.56;59.88;98776.36;1728646;82;20992;-68
2021/07/05 08:23:17;;;;;;;6.95;4.15;;;;;;;27.67;59.61;98777.06;1741412;82;21122;-67
2021/07/05 08:25:44;;;;;;;6.17;4.28;;;;;;;27.68;58.34;98776.67;1741258;81;21043;-69
2021/07/05 08:28:11;;;;;;;6.60;3.72;;;;;;;27.74;59.38;98785.41;1741199;82;21079;-69
2021/07/05 08:30:38;;;;;;;6.12;3.80;;;;;;;27.87;57.83;98790.73;1738942;82;21091;-70
2021/07/05 08:33:04;;;;;;;6.33;3.55;;;;;;;27.92;56.15;98788.09;1697713;83;21066;-69
2021/07/05 08:35:34;;;;;;;7.15;4.00;;;;;;;27.83;55.70;98794.75;1714435;84;21114;-70
2021/07/05 08:38:00;;;;;;;8.60;3.40;;;;;;;27.67;55.98;98791.84;1712916;84;21110;-69
2021/07/05 08:40:26;;;;;;;5.37;3.50;;;;;;;27.67;56.17;98795.23;1712559;82;21451;-69
2021/07/05 08:42:56;;;;;;;5.70;3.58;;;;;;;27.68;55.96;98780.86;1662217;84;21157;-69
2021/07/05 08:45:22;;;;;;;5.22;3.50;;;;;;;27.66;55.83;98774.09;1713923;84;21102;-69
2021/07/05 08:47:52;;;;;;;7.70;3.85;;;;;;;27.64;55.87;98784.88;1714629;83;21039;-69
2021/07/05 08:50:20;;;;;;;6.35;3.90;;;;;;;27.79;56.18;98782.19;1713840;82;21071;-64
2021/07/05 08:52:46;;;;;;;6.90;3.75;;;;;;;27.92;56.52;98783.89;1712040;82;21047;-64
2021/07/05 08:55:16;;;;;;;7.22;4.30;;;;;;;28.00;55.72;98788.23;1711964;82;20987;-64
2021/07/05 08:57:45;;;;;;;5.37;3.42;;;;;;;27.82;55.47;98782.77;1711870;83;21184;-64
2021/07/05 09:00:22;;;;;;;6.37;4.17;;;;;;;27.67;55.76;98789.64;1713630;82;21427;-64
2021/07/05 09:02:48;;;;;;;6.92;4.12;;;;;;;27.61;56.12;98781.50;1711794;84;21031;-63
2021/07/05 09:05:15;;;;;;;6.22;4.37;;;;;;;27.73;57.33;98770.45;1711704;84;21035;-67
2021/07/05 09:08:04;;;;;;;5.87;3.72;;;;;;;27.78;55.88;98788.18;1712050;84;21035;-65
2021/07/05 09:10:52;;;;;;;8.75;3.67;;;;;;;27.69;55.78;98787.25;1736129;82;21526;-64
2021/07/05 09:13:22;;;;;;;6.35;3.70;;;;;;;27.64;56.36;98789.87;1738000;82;21036;-65
2021/07/05 09:15:57;;;;;;;5.90;3.60;;;;;;;27.60;55.57;98781.30;1741433;82;21000;-64
2021/07/05 09:18:46;;;;;;;4.83;3.85;;;;;;;27.63;55.71;98787.50;1741363;82;21582;-65
2021/07/05 09:21:26;;;;;;;4.95;3.72;;;;;;;27.75;56.75;98789.00;1739113;82;20996;-64
2021/07/05 09:24:03;;;;;;;7.15;4.35;;;;;;;27.96;54.80;98793.86;1741326;82;20976;-64
2021/07/05 09:26:42;;;;;;;7.55;4.00;;;;;;;28.03;54.65;98786.02;1741250;82;21494;-64
2021/07/05 09:29:17;;;;;;;5.72;3.80;;;;;;;28.16;55.67;98789.33;1723293;82;20955;-65
2021/07/05 09:31:56;;;;;;;8.83;3.80;;;;;;;28.28;53.13;98782.45;1711983;84;21110;-65
2021/07/05 09:34:31;;;;;;;4.85;3.62;;;;;;;28.28;53.85;98792.84;1711974;83;21008;-66
2021/07/05 09:37:25;;;;;;;5.47;3.35;;;;;;;28.31;53.84;98783.62;1711774;84;21107;-65
2021/07/05 09:40:08;;;;;;;5.37;3.30;;;;;;;28.36;52.85;98783.19;1713794;82;20983;-65
2021/07/05 09:42:42;;;;;;;6.45;3.50;;;;;;;28.35;52.57;98791.38;1711993;82;21043;-66
2021/07/05 09:45:12;;;;;;;6.37;3.45;;;;;;;28.43;54.26;98795.72;1710910;84;21526;-65
2021/07/05 09:47:38;;;;;;;6.35;3.75;;;;;;;28.72;53.56;98796.28;1721807;82;21028;-66
2021/07/05 09:50:16;;;;;;;5.40;3.45;;;;;;;28.89;52.20;98791.09;1741506;82;21573;-65
2021/07/05 09:52:43;;;;;;;6.87;3.60;;;;;;;28.93;51.53;98795.45;1741651;82;21050;-66
2021/07/05 09:55:15;;;;;;;6.62;3.75;;;;;;;28.79;52.64;98794.81;1741553;81;21070;-65
2021/07/05 09:57:51;;;;;;;9.40;3.83;;;;;;;28.55;52.26;98799.42;1739096;82;21522;-65
2021/07/05 10:00:26;;;;;;;5.75;3.33;;;;;;;28.14;52.78;98797.35;1741681;82;21000;-65
2021/07/05 10:03:06;;;;;;;7.80;4.00;;;;;;;27.86;54.13;98801.72;1733275;82;21506;-66
2021/07/05 10:05:46;;;;;;;4.00;3.25;;;;;;;27.88;54.62;98806.92;1712146;84;21564;-65
2021/07/05 10:08:15;;;;;;;5.60;3.50;;;;;;;27.91;54.56;98804.09;1714121;82;21015;-66
2021/07/05 10:10:44;;;;;;;5.08;3.27;;;;;;;28.06;54.87;98803.37;1711977;84;21066;-65
2021/07/05 10:13:14;;;;;;;3.60;3.17;;;;;;;28.15;53.33;98796.76;1712117;82;21051;-66
2021/07/05 10:15:42;;;;;;;4.92;3.10;;;;;;;28.23;53.59;98780.71;1712086;83;21072;-66
2021/07/05 10:18:09;;;;;;;6.50;3.10;;;;;;;28.37;53.58;98791.78;1731045;81;21483;-66
2021/07/05 10:20:41;;;;;;;6.17;3.00;;;;;;;28.53;52.70;98789.22;1741556;82;21031;-64
2021/07/05 10:23:11;;;;;;;6.75;3.17;;;;;;;28.55;51.72;98786.83;1741318;82;21471;-66
2021/07/05 10:25:44;;;;;;;4.12;3.05;;;;;;;28.52;51.62;98778.62;1741676;82;20999;-67
2021/07/05 10:28:10;;;;;;;7.25;3.60;;;;;;;28.63;51.96;98783.52;1739055;82;21063;-65
2021/07/05 10:30:37;;;;;;;6.10;2.90;;;;;;;28.70;51.84;98776.31;1733950;82;20976;-65
2021/07/05 10:33:04;;;;;;;6.33;2.92;;;;;;;28.69;51.63;98780.31;1692055;84;21042;-65
2021/07/05 10:35:37;;;;;;;6.30;3.33;;;;;;;28.59;51.66;98781.36;1711932;83;21066;-66
2021/07/05 10:38:34;;;;;;;5.67;3.12;;;;;;;28.57;52.45;98782.98;1740678;82;21023;-65
2021/07/05 10:41:11;;;;;;;4.15;2.90;;;;;;;28.61;53.01;98775.36;1741220;82;21056;-65
2021/07/05 10:43:55;;;;;;;4.50;3.22;;;;;;;28.66;52.19;98783.32;1741285;82;21139;-64
2021/07/05 10:46:45;;;;;;;6.78;2.90;;;;;;;28.74;51.82;98773.64;1739120;82;21055;-65
2021/07/05 10:49:32;;;;;;;6.45;3.30;;;;;;;28.91;50.49;98771.25;1741464;82;21019;-65
2021/07/05 10:52:08;;;;;;;6.05;3.17;;;;;;;29.05;51.04;98772.48;1724899;82;21011;-65
2021/07/05 10:54:56;;;;;;;4.17;3.02;;;;;;;29.12;50.94;98772.41;1725868;82;20976;-66
2021/07/05 10:57:35;;;;;;;4.33;2.90;;;;;;;29.15;50.21;98770.79;1720779;82;21118;-64
2021/07/05 11:00:12;;;;;;;4.35;2.70;;;;;;;29.01;50.37;98778.77;1710603;84;21011;-64
2021/07/05 11:02:47;;;;;;;8.10;3.20;;;;;;;28.91;49.87;98769.84;1715993;81;21043;-64
2021/07/05 11:05:42;;;;;;;7.15;2.90;;;;;;;29.07;49.92;98769.28;1726702;82;21585;-65
2021/07/05 11:08:20;;;;;;;4.30;2.83;;;;;;;29.07;49.92;98769.28;1722499;81;21047;-66
2021/07/05 11:10:49;;;;;;;5.25;2.92;;;;;;;29.09;51.40;98757.83;1729882;82;20999;-64
2021/07/05 11:13:17;;;;;;;5.47;3.02;;;;;;;29.13;50.37;98758.59;1632035;86;21051;-66
2021/07/05 11:15:55;;;;;;;4.50;3.10;;;;;;;29.02;50.88;98763.52;1701255;83;21021;-66
2021/07/05 11:18:45;;;;;;;6.00;3.27;;;;;;;28.99;50.82;98770.56;1696032;83;21462;-66
2021/07/05 11:21:31;;;;;;;3.47;2.80;;;;;;;28.99;50.38;98761.56;1692321;84;21042;-65
2021/07/05 11:24:07;;;;;;;3.00;2.70;;;;;;;28.97;49.67;98762.59;1724496;81;20960;-64
2021/07/05 11:26:36;;;;;;;5.30;2.70;;;;;;;28.91;50.59;98754.44;1660498;85;21035;-64
2021/07/05 11:29:25;;;;;;;8.05;2.80;;;;;;;28.95;50.40;98758.60;1663781;84;21004;-64
2021/07/05 11:32:00;;;;;;;5.85;2.92;;;;;;;29.02;51.01;98750.91;1688186;82;21023;-65
2021/07/05 11:34:35;;;;;;;;;;;;;;;29.22;50.02;98740.48;1687648;84;21118;-65
2021/07/05 11:37:16;;;;;;;5.40;3.00;;;;;;;29.24;48.87;98745.05;1648372;84;20163;-64
2021/07/05 11:39:50;;;;;;;5.58;2.60;;;;;;;29.12;49.37;98740.81;1672102;85;21108;-64
2021/07/05 11:42:24;;;;;;;6.83;2.50;;;;;;;29.10;49.63;98745.42;1686599;84;21497;-64
2021/07/05 11:44:55;;;;;;;7.67;2.92;;;;;;;29.20;49.44;98742.89;1668754;84;21026;-67
2021/07/05 11:47:44;;;;;;;7.37;2.90;;;;;;;29.28;49.14;98741.63;1663996;84;21064;-66
2021/07/05 11:50:27;;;;;;;4.10;2.77;;;;;;;29.27;48.72;98738.63;1638044;84;21040;-65
2021/07/05 11:52:58;;;;;;;4.97;2.70;;;;;;;29.06;49.00;98730.66;1669367;85;21605;-66
2021/07/05 11:55:27;;;;;;;4.58;2.62;;;;;;;28.96;49.35;98734.39;1670556;85;21131;-65
2021/07/05 11:58:06;;;;;;;5.80;2.60;;;;;;;28.98;49.05;98722.78;1666753;84;21080;-64
2021/07/05 12:00:36;;;;;;;5.45;2.70;;;;;;;29.01;49.08;98724.73;1662338;85;21032;-63
2021/07/05 12:03:13;;;;;;;5.95;2.85;;;;;;;29.04;48.79;98719.09;1673958;85;22745;-66
2021/07/05 12:05:45;;;;;;;3.92;2.72;;;;;;;29.12;48.53;98721.96;1675653;84;21022;-65